Time;durP1;ratioP1;P1;durP2;ratioP2;P2;SDS_P1;SDS_P2;PMS_P1;PMS_P2;Temp;Humidity;BMP_temperature;BMP_pressure;BME280_temperature;BME280_humidity;BME280_pressure;Samples;Min_cycle;Max_cycle;Signal;HPM_P1;HPM_P2
2023/04/24 00:01:47;;;;;;;;;;;20.00;56.50;;;;;;5063851;28;42976;-77
2023/04/24 00:04:13;;;;;;;;;;;20.00;56.70;;;;;;5061452;28;44927;-77
2023/04/24 00:06:42;;;;;;;;;;;20.10;56.60;;;;;;5064418;28;42911;-78
2023/04/24 00:09:09;;;;;;;;;;;20.00;56.80;;;;;;5063759;28;43477;-78
2023/04/24 00:11:35;;;;;;;;;;;20.10;57.00;;;;;;5064644;28;42970;-77
2023/04/24 00:14:00;;;;;;;;;;;20.00;56.90;;;;;;5064648;28;44402;-77
2023/04/24 00:16:26;;;;;;;;;;;20.00;57.50;;;;;;5062325;28;43128;-77
2023/04/24 00:18:52;;;;;;;;;;;20.00;57.00;;;;;;5064388;28;43604;-78
2023/04/24 00:21:18;;;;;;;;;;;20.10;57.50;;;;;;5064722;28;43045;-78
2023/04/24 00:23:44;;;;;;;;;;;20.00;57.30;;;;;;5063865;28;44313;-76
2023/04/24 00:26:09;;;;;;;;;;;20.00;56.70;;;;;;5063145;28;43358;-75
2023/04/24 00:28:35;;;;;;;;;;;20.00;56.60;;;;;;5064217;28;42906;-78
2023/04/24 00:31:01;;;;;;;;;;;20.10;56.80;;;;;;5064034;28;43013;-77
2023/04/24 00:33:26;;;;;;;;;;;20.10;56.70;;;;;;5063130;28;44770;-79
2023/04/24 00:35:52;;;;;;;;;;;20.10;56.80;;;;;;5064627;28;42839;-81
2023/04/24 00:38:17;;;;;;;;;;;20.10;57.20;;;;;;5063945;28;43585;-75
2023/04/24 00:40:43;;;;;;;;;;;20.10;57.20;;;;;;5064386;28;42937;-79
2023/04/24 00:43:09;;;;;;;;;;;20.10;56.70;;;;;;5063571;28;42925;-78
2023/04/24 00:45:34;;;;;;;;;;;20.10;56.70;;;;;;5063363;28;42917;-78
2023/04/24 00:48:00;;;;;;;;;;;20.10;56.70;;;;;;5063377;28;43459;-79
2023/04/24 00:50:26;;;;;;;;;;;;;;;;;;5063817;28;43131;-78
2023/04/24 00:52:52;;;;;;;;;;;20.10;56.70;;;;;;5064514;28;43191;-77
2023/04/24 00:55:18;;;;;;;;;;;20.00;56.70;;;;;;5063626;28;42996;-78
2023/04/24 00:57:43;;;;;;;;;;;20.10;57.20;;;;;;5063536;28;43633;-77
2023/04/24 01:00:12;;;;;;;;;;;20.10;56.90;;;;;;5063708;28;42923;-78
2023/04/24 01:02:40;;;;;;;;;;;20.00;56.80;;;;;;5062026;28;43774;-77
2023/04/24 01:05:07;;;;;;;;;;;20.00;56.90;;;;;;5062142;28;43002;-77
2023/04/24 01:07:32;;;;;;;;;;;20.00;56.90;;;;;;5063123;28;43531;-77
2023/04/24 01:09:58;;;;;;;;;;;20.10;57.50;;;;;;5064118;28;42866;-78
2023/04/24 01:12:23;;;;;;;;;;;20.10;57.50;;;;;;5061756;28;44525;-77
2023/04/24 01:14:49;;;;;;;;;;;20.00;57.60;;;;;;5063797;28;42773;-76
2023/04/24 01:17:15;;;;;;;;;;;20.00;56.90;;;;;;5063550;28;42911;-77
2023/04/24 01:19:40;;;;;;;;;;;20.10;56.80;;;;;;5063789;28;43035;-85
2023/04/24 01:22:16;;;;;;;;;;;20.10;57.30;;;;;;5064025;28;43599;-77
2023/04/24 01:24:42;;;;;;;;;;;20.10;57.20;;;;;;5063316;28;42818;-79
2023/04/24 01:27:08;;;;;;;;;;;20.00;56.90;;;;;;5062885;28;43499;-77
2023/04/24 01:29:34;;;;;;;;;;;20.00;56.90;;;;;;5063691;28;42953;-77
2023/04/24 01:31:59;;;;;;;;;;;20.00;56.80;;;;;;5063360;28;42814;-79
2023/04/24 01:34:25;;;;;;;;;;;20.00;56.60;;;;;;5063046;28;42912;-78
2023/04/24 01:36:51;;;;;;;;;;;20.10;56.60;;;;;;5063833;28;43581;-77
2023/04/24 01:39:16;;;;;;;;;;;20.10;57.00;;;;;;5066968;28;43011;-77
2023/04/24 01:41:42;;;;;;;;;;;20.10;57.00;;;;;;5065804;28;43662;-78
2023/04/24 01:44:07;;;;;;;;;;;20.10;57.00;;;;;;5067363;28;42961;-77
2023/04/24 01:46:34;;;;;;;;;;;20.10;56.40;;;;;;5065811;28;43027;-79
2023/04/24 01:49:00;;;;;;;;;;;20.10;56.40;;;;;;5067343;28;42930;-76
2023/04/24 01:51:26;;;;;;;;;;;20.10;56.60;;;;;;5067188;28;42929;-78
2023/04/24 01:53:53;;;;;;;;;;;20.00;57.10;;;;;;5066743;28;42953;-77
2023/04/24 01:56:19;;;;;;;;;;;19.90;56.80;;;;;;5066690;28;44893;-77
2023/04/24 01:58:45;;;;;;;;;;;19.90;56.80;;;;;;5065881;28;42875;-77
2023/04/24 02:01:15;;;;;;;;;;;19.90;56.70;;;;;;5065559;28;43312;-77
2023/04/24 02:03:40;;;;;;;;;;;20.00;56.70;;;;;;5066411;28;43392;-77
2023/04/24 02:06:06;;;;;;;;;;;20.00;57.20;;;;;;5065527;28;43871;-87
2023/04/24 02:08:31;;;;;;;;;;;20.00;56.50;;;;;;5066212;28;43053;-84
2023/04/24 02:10:57;;;;;;;;;;;20.10;56.50;;;;;;5066476;28;42973;-77
2023/04/24 02:13:22;;;;;;;;;;;20.10;56.50;;;;;;5066292;28;42843;-79
2023/04/24 02:15:48;;;;;;;;;;;20.10;56.90;;;;;;5065200;28;42846;-77
2023/04/24 02:18:13;;;;;;;;;;;20.00;56.40;;;;;;5066525;28;43132;-77
2023/04/24 02:20:38;;;;;;;;;;;20.10;56.50;;;;;;5065478;28;43702;-86
2023/04/24 02:23:04;;;;;;;;;;;20.10;57.10;;;;;;5065285;28;42779;-85
2023/04/24 02:25:30;;;;;;;;;;;20.10;57.10;;;;;;5064576;28;43769;-84
2023/04/24 02:27:55;;;;;;;;;;;20.00;56.50;;;;;;5066697;28;42898;-87
2023/04/24 02:30:21;;;;;;;;;;;20.00;56.50;;;;;;5065945;28;42857;-86
2023/04/24 02:32:46;;;;;;;;;;;20.10;56.60;;;;;;5065618;28;42961;-77
2023/04/24 02:35:12;;;;;;;;;;;20.10;57.00;;;;;;5065915;28;42983;-77
2023/04/24 02:37:37;;;;;;;;;;;20.10;56.50;;;;;;5067125;28;43230;-77
2023/04/24 02:40:03;;;;;;;;;;;20.00;56.40;;;;;;5065909;28;43042;-77
2023/04/24 02:42:29;;;;;;;;;;;20.00;56.50;;;;;;5066020;28;42949;-78
2023/04/24 02:44:54;;;;;;;;;;;20.00;56.60;;;;;;5066257;28;43537;-87
2023/04/24 02:47:20;;;;;;;;;;;20.00;57.30;;;;;;5065171;28;42974;-88
2023/04/24 02:49:45;;;;;;;;;;;20.00;57.30;;;;;;5065770;28;42929;-88
2023/04/24 02:52:11;;;;;;;;;;;20.00;57.20;;;;;;5065976;28;42865;-87
2023/04/24 02:54:36;;;;;;;;;;;20.00;56.70;;;;;;5065274;28;42939;-85
2023/04/24 02:57:02;;;;;;;;;;;20.00;57.40;;;;;;5065770;28;43090;-83
2023/04/24 02:59:28;;;;;;;;;;;20.00;57.50;;;;;;5065308;28;42909;-88
2023/04/24 03:01:54;;;;;;;;;;;19.90;56.90;;;;;;5064832;28;42950;-87
2023/04/24 03:04:20;;;;;;;;;;;19.90;57.50;;;;;;5065496;28;43312;-87
2023/04/24 03:06:45;;;;;;;;;;;19.90;57.50;;;;;;5066155;28;43060;-87
2023/04/24 03:09:11;;;;;;;;;;;19.90;57.00;;;;;;5065182;28;42894;-86
2023/04/24 03:11:36;;;;;;;;;;;19.90;57.10;;;;;;5065061;28;42938;-86
2023/04/24 03:14:02;;;;;;;;;;;19.90;57.60;;;;;;5065035;28;42846;-78
2023/04/24 03:16:27;;;;;;;;;;;19.90;57.20;;;;;;5065264;28;43051;-87
2023/04/24 03:18:53;;;;;;;;;;;19.90;57.60;;;;;;5065170;28;43321;-85
2023/04/24 03:21:18;;;;;;;;;;;19.90;57.40;;;;;;5065399;28;42859;-87
2023/04/24 03:23:44;;;;;;;;;;;19.90;56.90;;;;;;5064994;28;42840;-88
2023/04/24 03:26:10;;;;;;;;;;;20.00;57.40;;;;;;5065607;28;42992;-84
2023/04/24 03:28:35;;;;;;;;;;;20.00;57.30;;;;;;5065637;28;43593;-85
2023/04/24 03:31:02;;;;;;;;;;;20.00;56.70;;;;;;5065111;28;42993;-87
2023/04/24 03:33:27;;;;;;;;;;;20.00;57.20;;;;;;5064613;28;43549;-87
2023/04/24 03:35:53;;;;;;;;;;;19.80;56.90;;;;;;5064773;28;42949;-88
2023/04/24 03:38:18;;;;;;;;;;;19.90;56.90;;;;;;5063957;28;43160;-83
2023/04/24 03:40:44;;;;;;;;;;;19.90;57.00;;;;;;5064584;28;42965;-87
2023/04/24 03:43:10;;;;;;;;;;;20.00;57.70;;;;;;5064355;28;43431;-87
2023/04/24 03:45:35;;;;;;;;;;;19.90;57.10;;;;;;5064160;28;42872;-88
2023/04/24 03:48:01;;;;;;;;;;;19.90;57.20;;;;;;5064987;28;42924;-87
2023/04/24 03:50:26;;;;;;;;;;;19.90;57.20;;;;;;5064757;28;42946;-88
2023/04/24 03:52:52;;;;;;;;;;;19.90;57.20;;;;;;5064421;28;42965;-85
2023/04/24 03:55:17;;;;;;;;;;;19.90;57.60;;;;;;5064785;28;42838;-87
2023/04/24 03:57:43;;;;;;;;;;;20.00;57.50;;;;;;5064551;28;42884;-88
2023/04/24 04:00:09;;;;;;;;;;;19.90;57.00;;;;;;5063386;28;42815;-87
2023/04/24 04:02:34;;;;;;;;;;;19.90;57.00;;;;;;5064849;28;43657;-88
2023/04/24 04:05:00;;;;;;;;;;;20.00;56.90;;;;;;5064965;28;43096;-88
2023/04/24 04:07:25;;;;;;;;;;;19.90;56.70;;;;;;5064822;28;43006;-85
2023/04/24 04:09:51;;;;;;;;;;;19.90;56.80;;;;;;5064465;28;43030;-87
2023/04/24 04:12:16;;;;;;;;;;;20.00;57.40;;;;;;5064808;28;42909;-87
2023/04/24 04:14:42;;;;;;;;;;;19.90;56.90;;;;;;5062479;28;43147;-86
2023/04/24 04:17:07;;;;;;;;;;;19.90;57.50;;;;;;5063533;28;44011;-87
2023/04/24 04:19:33;;;;;;;;;;;20.00;57.50;;;;;;5064763;28;42945;-87
2023/04/24 04:21:59;;;;;;;;;;;19.90;57.00;;;;;;5064863;28;43034;-88
2023/04/24 04:24:26;;;;;;;;;;;19.90;57.50;;;;;;5064680;28;42917;-87
2023/04/24 04:26:52;;;;;;;;;;;20.00;57.40;;;;;;5064580;28;42986;-81
2023/04/24 04:29:18;;;;;;;;;;;20.00;56.70;;;;;;5063572;28;42933;-77
2023/04/24 04:31:44;;;;;;;;;;;20.00;56.60;;;;;;5064213;28;42942;-78
2023/04/24 04:34:09;;;;;;;;;;;20.30;57.10;;;;;;5064082;28;42901;-77
2023/04/24 04:36:36;;;;;;;;;;;20.00;57.30;;;;;;5062787;28;44230;-77
2023/04/24 04:39:02;;;;;;;;;;;19.90;56.90;;;;;;5064377;28;42945;-77
2023/04/24 04:41:28;;;;;;;;;;;20.00;56.80;;;;;;5063776;28;43923;-85
2023/04/24 04:43:53;;;;;;;;;;;19.90;56.90;;;;;;5064278;28;43057;-76
2023/04/24 04:46:19;;;;;;;;;;;19.90;56.80;;;;;;5064097;28;43017;-77
2023/04/24 04:48:45;;;;;;;;;;;20.00;57.40;;;;;;5064487;28;42961;-77
2023/04/24 04:51:11;;;;;;;;;;;19.90;56.80;;;;;;5064795;28;42960;-76
2023/04/24 04:53:37;;;;;;;;;;;19.90;56.80;;;;;;5064802;28;42953;-77
2023/04/24 04:56:02;;;;;;;;;;;20.00;57.40;;;;;;5064401;28;43088;-77
2023/04/24 04:58:28;;;;;;;;;;;20.30;57.00;;;;;;5064553;28;42790;-78
2023/04/24 05:00:53;;;;;;;;;;;19.90;57.30;;;;;;5064502;28;43664;-77
2023/04/24 05:03:19;;;;;;;;;;;19.90;56.90;;;;;;5064485;28;42798;-80
2023/04/24 05:05:45;;;;;;;;;;;19.90;56.90;;;;;;5064267;28;43344;-87
2023/04/24 05:08:10;;;;;;;;;;;19.90;57.50;;;;;;5064970;28;42985;-77
2023/04/24 05:10:36;;;;;;;;;;;19.90;57.60;;;;;;5064647;28;42953;-77
2023/04/24 05:13:03;;;;;;;;;;;19.90;57.60;;;;;;5067866;28;43027;-77
2023/04/24 05:15:28;;;;;;;;;;;19.90;57.00;;;;;;5067023;28;44408;-77
2023/04/24 05:17:54;;;;;;;;;;;19.90;57.00;;;;;;5067635;28;43021;-77
2023/04/24 05:20:19;;;;;;;;;;;19.80;56.90;;;;;;5066864;28;43071;-77
2023/04/24 05:22:45;;;;;;;;;;;19.90;56.90;;;;;;5067634;28;43073;-77
2023/04/24 05:25:12;;;;;;;;;;;19.90;57.50;;;;;;5067662;28;43731;-76
2023/04/24 05:27:38;;;;;;;;;;;19.90;56.80;;;;;;5067398;28;43182;-85
2023/04/24 05:30:04;;;;;;;;;;;19.90;57.30;;;;;;5067574;28;43638;-86
2023/04/24 05:32:31;;;;;;;;;;;19.90;56.90;;;;;;5067317;28;42957;-83
2023/04/24 05:34:57;;;;;;;;;;;19.90;57.40;;;;;;5067512;28;42999;-83
2023/04/24 05:37:23;;;;;;;;;;;19.90;56.90;;;;;;5067046;28;42916;-80
2023/04/24 05:39:48;;;;;;;;;;;19.90;57.40;;;;;;5067356;28;42961;-78
2023/04/24 05:42:14;;;;;;;;;;;19.90;57.30;;;;;;5066279;28;43015;-83
2023/04/24 05:44:40;;;;;;;;;;;;;;;;;;5067462;28;43642;-87
2023/04/24 05:47:05;;;;;;;;;;;19.80;57.10;;;;;;5067801;28;42846;-85
2023/04/24 05:49:31;;;;;;;;;;;19.90;57.10;;;;;;5066918;28;43328;-83
2023/04/24 05:51:57;;;;;;;;;;;19.90;57.10;;;;;;5067425;28;43020;-78
2023/04/24 05:54:22;;;;;;;;;;;19.90;57.50;;;;;;5067340;28;43060;-78
2023/04/24 05:56:49;;;;;;;;;;;19.90;56.90;;;;;;5065748;28;42773;-81
2023/04/24 05:59:15;;;;;;;;;;;19.90;57.40;;;;;;5067552;28;42923;-83
2023/04/24 06:01:40;;;;;;;;;;;19.90;56.80;;;;;;5067292;28;42880;-78
2023/04/24 06:04:06;;;;;;;;;;;19.90;56.70;;;;;;5066841;28;43499;-81
2023/04/24 06:06:32;;;;;;;;;;;19.80;56.60;;;;;;5067088;28;42874;-88
2023/04/24 06:08:58;;;;;;;;;;;19.90;56.70;;;;;;5065374;28;45229;-82
2023/04/24 06:11:24;;;;;;;;;;;19.90;56.60;;;;;;5065522;28;42933;-77
2023/04/24 06:13:50;;;;;;;;;;;19.90;56.70;;;;;;5066097;28;43543;-80
2023/04/24 06:16:15;;;;;;;;;;;20.00;57.30;;;;;;5066952;28;42933;-79
2023/04/24 06:18:41;;;;;;;;;;;19.90;56.70;;;;;;5067301;28;43478;-77
2023/04/24 06:21:06;;;;;;;;;;;19.90;56.70;;;;;;5066037;28;42947;-85
2023/04/24 06:23:32;;;;;;;;;;;19.90;56.70;;;;;;5066014;28;43541;-80
2023/04/24 06:25:58;;;;;;;;;;;19.90;57.20;;;;;;5066903;28;42866;-77
2023/04/24 06:28:24;;;;;;;;;;;19.90;56.30;;;;;;5066254;28;43587;-78
2023/04/24 06:30:50;;;;;;;;;;;19.90;56.70;;;;;;5065090;28;43341;-77
2023/04/24 06:33:15;;;;;;;;;;;16.60;53.20;;;;;;5066197;28;43785;-80
2023/04/24 06:35:41;;;;;;;;;;;19.90;54.80;;;;;;5065900;28;43278;-78
2023/04/24 06:38:06;;;;;;;;;;;19.90;54.60;;;;;;5065872;28;43937;-79
2023/04/24 06:40:33;;;;;;;;;;;19.90;54.60;;;;;;5065891;28;42871;-78
2023/04/24 06:42:59;;;;;;;;;;;19.80;53.80;;;;;;5065673;28;42946;-78
2023/04/24 06:45:25;;;;;;;;;;;19.80;53.90;;;;;;5065913;28;42911;-80
2023/04/24 06:47:51;;;;;;;;;;;19.80;53.90;;;;;;5066004;28;42888;-87
2023/04/24 06:50:16;;;;;;;;;;;19.70;54.30;;;;;;5065271;28;43154;-77
2023/04/24 06:52:42;;;;;;;;;;;19.70;53.50;;;;;;5066773;28;42879;-84
2023/04/24 06:55:08;;;;;;;;;;;19.70;53.40;;;;;;5066324;28;42993;-84
2023/04/24 06:57:33;;;;;;;;;;;19.70;53.70;;;;;;5066024;28;43912;-82
2023/04/24 06:59:59;;;;;;;;;;;19.70;53.20;;;;;;5066080;28;42836;-79
2023/04/24 07:02:24;;;;;;;;;;;19.80;53.00;;;;;;5066122;28;42856;-80
2023/04/24 07:04:50;;;;;;;;;;;19.70;52.90;;;;;;5066514;28;42968;-88
2023/04/24 07:07:16;;;;;;;;;;;19.70;53.30;;;;;;5065953;28;43261;-87
2023/04/24 07:09:42;;;;;;;;;;;19.70;53.60;;;;;;5066251;28;43062;-78
2023/04/24 07:12:10;;;;;;;;;;;19.70;53.20;;;;;;5065618;28;43511;-77
2023/04/24 07:14:36;;;;;;;;;;;19.70;53.80;;;;;;5065812;28;42950;-77
2023/04/24 07:17:02;;;;;;;;;;;19.70;53.20;;;;;;5064930;28;43013;-78
2023/04/24 07:19:28;;;;;;;;;;;19.80;53.40;;;;;;5063667;28;44038;-81
2023/04/24 07:21:54;;;;;;;;;;;19.80;52.10;;;;;;5064384;28;43190;-77
2023/04/24 07:24:20;;;;;;;;;;;19.70;53.40;;;;;;5064252;28;43059;-80
2023/04/24 07:26:46;;;;;;;;;;;19.70;53.30;;;;;;5064549;28;43693;-83
2023/04/24 07:29:12;;;;;;;;;;;19.70;53.50;;;;;;5065334;28;43144;-80
2023/04/24 07:31:37;;;;;;;;;;;19.70;52.50;;;;;;5063779;28;43003;-86
2023/04/24 07:34:03;;;;;;;;;;;19.70;51.60;;;;;;5064296;28;42948;-85
2023/04/24 07:36:28;;;;;;;;;;;19.70;51.80;;;;;;5064629;28;43061;-87
2023/04/24 07:38:55;;;;;;;;;;;19.70;52.00;;;;;;5065643;28;42901;-77
2023/04/24 07:41:21;;;;;;;;;;;19.70;52.50;;;;;;5065407;28;42985;-80
2023/04/24 07:43:46;;;;;;;;;;;19.60;51.60;;;;;;5064429;28;43069;-87
2023/04/24 07:46:12;;;;;;;;;;;19.70;52.10;;;;;;5065223;28;43287;-79
2023/04/24 07:48:37;;;;;;;;;;;19.70;51.70;;;;;;5065084;28;42996;-87
2023/04/24 07:51:03;;;;;;;;;;;19.70;52.40;;;;;;5064436;28;43464;-79
2023/04/24 07:53:28;;;;;;;;;;;19.70;52.00;;;;;;5063740;28;43231;-80
2023/04/24 07:55:55;;;;;;;;;;;19.80;52.60;;;;;;5064834;28;42979;-77
2023/04/24 07:58:21;;;;;;;;;;;19.70;52.60;;;;;;5063713;28;42918;-80
2023/04/24 08:00:46;;;;;;;;;;;19.70;52.70;;;;;;5063032;28;43402;-81
2023/04/24 08:03:12;;;;;;;;;;;19.50;52.70;;;;;;5062303;28;43047;-79
2023/04/24 08:05:38;;;;;;;;;;;19.80;53.00;;;;;;5062421;28;44209;-86
2023/04/24 08:08:03;;;;;;;;;;;19.80;53.30;;;;;;5063317;28;43062;-81
2023/04/24 08:10:29;;;;;;;;;;;19.80;53.30;;;;;;5064928;28;43050;-86
2023/04/24 08:12:55;;;;;;;;;;;19.80;53.30;;;;;;5064653;28;43267;-84
2023/04/24 08:15:20;;;;;;;;;;;19.90;53.80;;;;;;5066827;28;42945;-86
2023/04/24 08:17:46;;;;;;;;;;;19.90;53.00;;;;;;5068472;28;42996;-81
2023/04/24 08:20:13;;;;;;;;;;;19.90;52.70;;;;;;5064146;28;43878;-79
2023/04/24 08:22:42;;;;;;;;;;;19.90;52.30;;;;;;5065512;28;43012;-86
2023/04/24 08:25:08;;;;;;;;;;;19.90;52.30;;;;;;5064979;28;43917;-78
2023/04/24 08:27:34;;;;;;;;;;;19.80;52.20;;;;;;5063678;28;43023;-85
2023/04/24 08:30:00;;;;;;;;;;;19.90;52.50;;;;;;5063552;28;42967;-85
2023/04/24 08:32:28;;;;;;;;;;;19.90;52.50;;;;;;5063780;28;43056;-85
2023/04/24 08:34:56;;;;;;;;;;;19.90;52.60;;;;;;5064466;28;43063;-85
2023/04/24 08:37:22;;;;;;;;;;;19.90;52.60;;;;;;5061787;28;43042;-83
2023/04/24 08:39:47;;;;;;;;;;;19.90;52.70;;;;;;5063851;28;42986;-82
2023/04/24 08:42:14;;;;;;;;;;;19.90;52.80;;;;;;5063487;28;42975;-83
2023/04/24 08:44:40;;;;;;;;;;;19.90;52.90;;;;;;5063688;28;43307;-83
2023/04/24 08:47:07;;;;;;;;;;;19.90;52.90;;;;;;5065474;28;43068;-83
2023/04/24 08:49:33;;;;;;;;;;;19.90;52.90;;;;;;5067307;28;43020;-84
2023/04/24 08:51:59;;;;;;;;;;;19.90;52.90;;;;;;5066782;28;43484;-82
2023/04/24 08:54:25;;;;;;;;;;;19.90;53.40;;;;;;5066596;28;43017;-80
2023/04/24 08:56:53;;;;;;;;;;;19.90;52.80;;;;;;5066454;28;43136;-80
2023/04/24 08:59:19;;;;;;;;;;;19.90;53.30;;;;;;5066450;28;43047;-78
2023/04/24 09:01:46;;;;;;;;;;;20.00;53.30;;;;;;5067232;28;43100;-83
2023/04/24 09:04:13;;;;;;;;;;;19.90;52.90;;;;;;5064198;28;42967;-81
2023/04/24 09:06:39;;;;;;;;;;;19.90;52.90;;;;;;5067963;28;42823;-81
2023/04/24 09:09:05;;;;;;;;;;;19.90;53.00;;;;;;5065628;28;43024;-82
2023/04/24 09:11:31;;;;;;;;;;;19.90;53.20;;;;;;5067868;28;42772;-80
2023/04/24 09:13:57;;;;;;;;;;;19.90;53.20;;;;;;5065343;28;43371;-79
2023/04/24 09:16:24;;;;;;;;;;;19.90;53.20;;;;;;5067009;28;42986;-81
2023/04/24 09:18:50;;;;;;;;;;;19.90;53.10;;;;;;5066865;28;43004;-79
2023/04/24 09:21:15;;;;;;;;;;;19.90;53.10;;;;;;5067278;28;43016;-78
2023/04/24 09:23:41;;;;;;;;;;;19.90;53.20;;;;;;5066620;28;42889;-79
2023/04/24 09:26:08;;;;;;;;;;;19.90;53.20;;;;;;5066484;28;43059;-79
2023/04/24 09:28:38;;;;;;;;;;;20.00;53.20;;;;;;5065330;28;42929;-83
2023/04/24 09:31:06;;;;;;;;;;;20.00;53.70;;;;;;5065717;28;43424;-82
2023/04/24 09:33:32;;;;;;;;;;;19.90;53.30;;;;;;5065968;28;43020;-81
2023/04/24 09:35:58;;;;;;;;;;;19.90;53.80;;;;;;5064493;28;42952;-83
2023/04/24 09:38:31;;;;;;;;;;;19.90;53.30;;;;;;5066129;28;43629;-81
2023/04/24 09:40:59;;;;;;;;;;;19.90;53.40;;;;;;5066370;28;42848;-79
2023/04/24 09:43:26;;;;;;;;;;;19.90;53.40;;;;;;5066700;28;42851;-84
2023/04/24 09:45:55;;;;;;;;;;;19.90;53.40;;;;;;5065379;28;42961;-83
2023/04/24 09:48:29;;;;;;;;;;;19.90;53.40;;;;;;5066606;28;43309;-84
2023/04/24 09:50:55;;;;;;;;;;;19.90;53.50;;;;;;5066823;28;42984;-83
2023/04/24 09:53:23;;;;;;;;;;;19.90;53.50;;;;;;5066446;28;43316;-79
2023/04/24 09:55:52;;;;;;;;;;;19.90;53.50;;;;;;5067608;28;43375;-84
2023/04/24 09:58:25;;;;;;;;;;;20.00;53.50;;;;;;5066816;28;42909;-84
2023/04/24 10:00:53;;;;;;;;;;;20.00;53.60;;;;;;5066585;28;42899;-84
2023/04/24 10:03:18;;;;;;;;;;;20.00;53.60;;;;;;5066534;28;42958;-83
2023/04/24 10:05:45;;;;;;;;;;;20.00;53.60;;;;;;5066873;28;42911;-83
2023/04/24 10:08:11;;;;;;;;;;;19.90;53.60;;;;;;5066738;28;43125;-80
2023/04/24 10:10:46;;;;;;;;;;;19.90;53.50;;;;;;5065852;28;43635;-84
2023/04/24 10:13:13;;;;;;;;;;;19.90;53.50;;;;;;5064095;28;42943;-82
2023/04/24 10:15:40;;;;;;;;;;;20.00;54.10;;;;;;5066792;28;42909;-83
2023/04/24 10:18:08;;;;;;;;;;;20.00;53.60;;;;;;5067037;28;43031;-79
2023/04/24 10:20:35;;;;;;;;;;;19.90;53.50;;;;;;5066592;28;42970;-82
2023/04/24 10:23:00;;;;;;;;;;;20.00;53.60;;;;;;5066346;28;42911;-85
2023/04/24 10:25:28;;;;;;;;;;;20.00;53.50;;;;;;5066893;28;42972;-85
2023/04/24 10:27:57;;;;;;;;;;;20.00;53.50;;;;;;5065867;28;43029;-82
2023/04/24 10:30:36;;;;;;;;;;;20.00;53.50;;;;;;5065660;28;42992;-85
2023/04/24 10:33:05;;;;;;;;;;;20.00;53.50;;;;;;5065216;28;43060;-83
2023/04/24 10:35:32;;;;;;;;;;;20.00;53.50;;;;;;5066507;28;42844;-81
2023/04/24 10:38:01;;;;;;;;;;;20.00;53.40;;;;;;5066223;28;43549;-79
2023/04/24 10:40:31;;;;;;;;;;;20.10;54.00;;;;;;5066423;28;42942;-85
2023/04/24 10:42:56;;;;;;;;;;;20.00;53.50;;;;;;5066117;28;43297;-83
2023/04/24 10:45:22;;;;;;;;;;;20.00;53.50;;;;;;5064150;28;42914;-84
2023/04/24 10:47:52;;;;;;;;;;;20.00;53.50;;;;;;5065984;28;43219;-80
2023/04/24 10:50:17;;;;;;;;;;;20.00;53.50;;;;;;5065904;28;42947;-84
2023/04/24 10:52:46;;;;;;;;;;;20.00;53.50;;;;;;5066213;28;42926;-80
2023/04/24 10:55:12;;;;;;;;;;;20.00;53.50;;;;;;5065834;28;43011;-81
2023/04/24 10:57:38;;;;;;;;;;;20.00;53.50;;;;;;5066217;28;43525;-80
2023/04/24 11:00:13;;;;;;;;;;;20.00;53.50;;;;;;5065331;28;43377;-80
2023/04/24 11:02:40;;;;;;;;;;;20.00;53.50;;;;;;5065349;28;44172;-80
2023/04/24 11:05:06;;;;;;;;;;;20.00;53.50;;;;;;5065601;28;43007;-84
2023/04/24 11:07:50;;;;;;;;;;;20.00;53.50;;;;;;5064862;28;43031;-77
2023/04/24 11:10:25;;;;;;;;;;;20.00;53.50;;;;;;5064402;28;43047;-80
2023/04/24 11:12:51;;;;;;;;;;;20.00;53.80;;;;;;5065754;28;43376;-86
2023/04/24 11:15:19;;;;;;;;;;;20.00;54.40;;;;;;5065414;28;42945;-78
2023/04/24 11:17:45;;;;;;;;;;;20.00;54.40;;;;;;5066039;28;43475;-79
2023/04/24 11:20:11;;;;;;;;;;;20.00;53.90;;;;;;5066484;28;42852;-78
2023/04/24 11:22:39;;;;;;;;;;;20.00;54.30;;;;;;5065875;28;43603;-78
2023/04/24 11:25:07;;;;;;;;;;;20.00;54.20;;;;;;5064965;28;59705;-77
2023/04/24 11:27:40;;;;;;;;;;;20.00;53.80;;;;;;5065399;28;43383;-78
2023/04/24 11:30:06;;;;;;;;;;;20.00;53.80;;;;;;5066017;28;43176;-84
2023/04/24 11:32:41;;;;;;;;;;;20.00;53.80;;;;;;5064524;28;44469;-79
2023/04/24 11:35:16;;;;;;;;;;;20.00;54.20;;;;;;5066332;28;42858;-83
2023/04/24 11:37:46;;;;;;;;;;;20.00;53.80;;;;;;5065614;28;44755;-77
2023/04/24 11:40:12;;;;;;;;;;;20.00;53.80;;;;;;5065904;28;42860;-78
2023/04/24 11:42:39;;;;;;;;;;;20.00;53.90;;;;;;5064769;28;43748;-86
2023/04/24 11:45:11;;;;;;;;;;;20.00;54.40;;;;;;5065667;28;42893;-84
2023/04/24 11:47:38;;;;;;;;;;;20.00;53.90;;;;;;5064035;28;44746;-80
2023/04/24 11:50:04;;;;;;;;;;;20.00;54.00;;;;;;5065387;28;42867;-85
2023/04/24 11:52:30;;;;;;;;;;;20.00;54.40;;;;;;5065113;28;43757;-80
2023/04/24 11:54:56;;;;;;;;;;;20.10;54.50;;;;;;5065594;28;43435;-78
2023/04/24 11:57:23;;;;;;;;;;;20.00;54.50;;;;;;5064815;28;43356;-78
2023/04/24 11:59:49;;;;;;;;;;;20.00;54.40;;;;;;5064914;28;42882;-82
2023/04/24 12:02:21;;;;;;;;;;;20.10;54.50;;;;;;5065352;28;43331;-83
2023/04/24 12:04:47;;;;;;;;;;;20.00;54.00;;;;;;5064759;28;42937;-85
2023/04/24 12:07:12;;;;;;;;;;;20.00;54.00;;;;;;5064616;28;43129;-85
2023/04/24 12:09:45;;;;;;;;;;;20.00;54.60;;;;;;5064121;28;43008;-85
2023/04/24 12:12:11;;;;;;;;;;;20.00;54.40;;;;;;5065440;28;43535;-77
2023/04/24 12:14:50;;;;;;;;;;;20.00;54.10;;;;;;5065492;28;42823;-86
2023/04/24 12:17:16;;;;;;;;;;;20.00;54.10;;;;;;5064735;28;42949;-82
2023/04/24 12:19:48;;;;;;;;;;;20.00;54.60;;;;;;5064945;28;42983;-82
2023/04/24 12:22:19;;;;;;;;;;;20.00;54.10;;;;;;5063703;28;43027;-81
2023/04/24 12:25:24;;;;;;;;;;;20.10;54.10;;;;;;5065494;28;43024;-86
2023/04/24 12:28:12;;;;;;;;;;;20.00;54.00;;;;;;5061786;28;43168;-88
2023/04/24 12:30:59;;;;;;;;;;;;;;;;;;;;;
2023/04/24 12:33:47;;;;;;;;;;;20.10;54.20;;;;;;5065164;28;72756;-85
2023/04/24 12:36:12;;;;;;;;;;;20.10;55.30;;;;;;5064813;28;43069;-86
2023/04/24 12:38:44;;;;;;;;;;;20.10;55.30;;;;;;5064014;28;43544;-85
2023/04/24 12:41:11;;;;;;;;;;;20.10;55.60;;;;;;5065564;28;42846;-82
2023/04/24 12:43:36;;;;;;;;;;;20.10;55.50;;;;;;5065030;28;43473;-87
2023/04/24 12:46:02;;;;;;;;;;;20.10;56.40;;;;;;5064795;28;42882;-87
2023/04/24 12:48:28;;;;;;;;;;;20.20;57.50;;;;;;5064158;28;43596;-78
2023/04/24 12:50:55;;;;;;;;;;;20.20;57.90;;;;;;5064046;28;42959;-87
2023/04/24 12:53:20;;;;;;;;;;;20.20;58.40;;;;;;5063937;28;44056;-86
2023/04/24 12:55:52;;;;;;;;;;;20.20;59.00;;;;;;5064417;28;42898;-86
2023/04/24 12:58:20;;;;;;;;;;;20.10;58.40;;;;;;5064977;28;43531;-82
2023/04/24 13:00:46;;;;;;;;;;;20.10;58.00;;;;;;5064656;28;43071;-87
2023/04/24 13:03:12;;;;;;;;;;;20.10;58.00;;;;;;5064829;28;44350;-87
2023/04/24 13:05:37;;;;;;;;;;;20.10;58.20;;;;;;5065021;28;43072;-82
2023/04/24 13:08:03;;;;;;;;;;;20.10;58.10;;;;;;5063421;28;45725;-80
2023/04/24 13:10:28;;;;;;;;;;;20.10;57.90;;;;;;5064686;28;43252;-84
2023/04/24 13:12:54;;;;;;;;;;;20.10;57.90;;;;;;5064904;28;43452;-86
2023/04/24 13:15:20;;;;;;;;;;;20.10;57.80;;;;;;5064228;28;42973;-82
2023/04/24 13:17:46;;;;;;;;;;;;;;;;;;5064466;28;42945;-82
2023/04/24 13:20:11;;;;;;;;;;;20.10;57.80;;;;;;5064559;28;42970;-83
2023/04/24 13:22:37;;;;;;;;;;;20.10;57.70;;;;;;5064674;28;42771;-84
2023/04/24 13:25:02;;;;;;;;;;;20.10;58.30;;;;;;5064056;28;42989;-81
2023/04/24 13:27:28;;;;;;;;;;;20.10;58.00;;;;;;5064388;28;43544;-84
2023/04/24 13:29:53;;;;;;;;;;;20.10;57.60;;;;;;5064375;28;42902;-85
2023/04/24 13:32:19;;;;;;;;;;;20.10;57.40;;;;;;5065429;28;43715;-83
2023/04/24 13:34:45;;;;;;;;;;;20.10;57.40;;;;;;5067796;28;42988;-84
2023/04/24 13:37:10;;;;;;;;;;;20.20;57.90;;;;;;5065692;28;45282;-83
2023/04/24 13:39:36;;;;;;;;;;;20.10;57.10;;;;;;5067254;28;42965;-85
2023/04/24 13:42:01;;;;;;;;;;;20.10;57.00;;;;;;5067660;28;42921;-81
2023/04/24 13:44:27;;;;;;;;;;;20.10;57.00;;;;;;5067472;28;42970;-85
2023/04/24 13:46:54;;;;;;;;;;;20.10;57.10;;;;;;5067678;28;43544;-85
2023/04/24 13:49:19;;;;;;;;;;;20.10;57.00;;;;;;5067497;28;43012;-85
2023/04/24 13:51:45;;;;;;;;;;;20.00;57.00;;;;;;5067001;28;44299;-84
2023/04/24 13:54:11;;;;;;;;;;;20.10;56.90;;;;;;5067150;28;42972;-81
2023/04/24 13:56:36;;;;;;;;;;;20.10;56.80;;;;;;5067148;28;43477;-83
2023/04/24 13:59:02;;;;;;;;;;;20.10;56.70;;;;;;5067385;28;42889;-84
2023/04/24 14:01:27;;;;;;;;;;;20.10;56.80;;;;;;5067265;28;43742;-83
2023/04/24 14:03:53;;;;;;;;;;;20.10;57.20;;;;;;5067545;28;42943;-84
2023/04/24 14:06:19;;;;;;;;;;;20.10;56.70;;;;;;5067295;28;42944;-84
2023/04/24 14:08:45;;;;;;;;;;;20.10;56.70;;;;;;5067520;28;42993;-82
2023/04/24 14:11:11;;;;;;;;;;;20.10;56.60;;;;;;5067307;28;42917;-85
2023/04/24 14:13:37;;;;;;;;;;;20.20;56.70;;;;;;5067055;28;42877;-80
2023/04/24 14:16:03;;;;;;;;;;;20.10;56.60;;;;;;5067299;28;43988;-81